Time;durP1;ratioP1;P1;durP2;ratioP2;P2;SDS_P1;SDS_P2;PMS_P1;PMS_P2;Temp;Humidity;BMP_temperature;BMP_pressure;BME280_temperature;BME280_humidity;BME280_pressure;Samples;Min_cycle;Max_cycle;Signal;HPM_P1;HPM_P2
2022/10/12 00:02:21;;;;;;;2.53;1.25;;;;;;;16.83;100.00;100822.88;5055567;28;20202;-74
2022/10/12 00:04:47;;;;;;;0.70;0.70;;;;;;;16.90;100.00;100832.50;5055549;28;20210;-74
2022/10/12 00:07:14;;;;;;;2.25;2.15;;;;;;;17.00;100.00;100826.38;5084694;28;20286;-74
2022/10/12 00:09:41;;;;;;;0.80;0.80;;;;;;;17.12;100.00;100826.38;5088500;28;20205;-73
2022/10/12 00:12:08;;;;;;;1.85;1.52;;;;;;;17.05;100.00;100824.63;5072394;28;20210;-73
2022/10/12 00:14:36;;;;;;;0.65;0.65;;;;;;;16.58;100.00;100738.19;5090755;28;20206;-73
2022/10/12 00:17:04;;;;;;;1.02;1.02;;;;;;;17.14;100.00;100824.66;5090807;28;20230;-74
2022/10/12 00:19:31;;;;;;;1.15;1.15;;;;;;;17.06;100.00;100830.75;5091124;28;20214;-73
2022/10/12 00:21:57;;;;;;;0.70;0.70;;;;;;;17.07;100.00;100827.25;5090819;28;20226;-74
2022/10/12 00:24:24;;;;;;;0.90;0.90;;;;;;;17.09;100.00;100833.38;5090179;28;20561;-74
2022/10/12 00:26:51;;;;;;;0.60;0.60;;;;;;;17.17;100.00;100829.88;5090405;28;20198;-73
2022/10/12 00:29:18;;;;;;;0.60;0.60;;;;;;;17.11;100.00;100823.78;5090754;28;20213;-73
2022/10/12 00:31:45;;;;;;;0.70;0.70;;;;;;;17.06;100.00;100831.63;5090833;28;20203;-73
2022/10/12 00:34:13;;;;;;;0.60;0.60;;;;;;;17.06;100.00;100815.03;5090804;28;20591;-74
2022/10/12 00:36:40;;;;;;;0.60;0.60;;;;;;;17.09;100.00;100829.00;5058710;28;20194;-73
2022/10/12 00:39:09;;;;;;;0.70;0.70;;;;;;;17.12;100.00;100820.28;5090713;28;20654;-74
2022/10/12 00:41:39;;;;;;;1.38;1.27;;;;;;;17.13;100.00;100825.50;5090826;28;20217;-73
2022/10/12 00:44:37;;;;;;;0.60;0.60;;;;;;;17.13;100.00;100822.91;5090743;28;20205;-73
2022/10/12 00:47:11;;;;;;;0.70;0.70;;;;;;;17.17;100.00;100824.66;5090616;28;20205;-74
2022/10/12 00:49:39;;;;;;;0.70;0.70;;;;;;;17.12;100.00;100815.06;5090732;28;20194;-73
2022/10/12 00:52:12;;;;;;;0.80;0.80;;;;;;;17.04;100.00;100822.03;5053327;28;20212;-73
2022/10/12 00:54:43;;;;;;;0.70;0.70;;;;;;;17.12;100.00;100817.66;5089786;28;20198;-73
2022/10/12 00:57:12;;;;;;;0.80;0.80;;;;;;;17.17;100.00;100819.41;5090743;28;20205;-73
2022/10/12 00:59:45;;;;;;;0.68;0.68;;;;;;;17.21;100.00;100821.16;5090899;28;20196;-73
2022/10/12 01:02:13;;;;;;;0.63;0.63;;;;;;;17.14;100.00;100823.78;5090297;28;20224;-73
2022/10/12 01:04:41;;;;;;;0.70;0.70;;;;;;;16.80;100.00;100760.03;5090097;28;20289;-73
2022/10/12 01:07:08;;;;;;;0.75;0.75;;;;;;;17.13;100.00;100816.78;5082437;28;20194;-73
2022/10/12 01:09:35;;;;;;;0.70;0.70;;;;;;;16.76;100.00;100730.34;5084538;28;20206;-73
2022/10/12 01:12:05;;;;;;;0.70;0.70;;;;;;;17.14;100.00;100792.31;5090393;28;20574;-73
2022/10/12 01:14:32;;;;;;;0.50;0.50;;;;;;;16.77;100.00;100739.03;5090605;28;20198;-73
2022/10/12 01:17:06;;;;;;;1.38;1.30;;;;;;;17.26;100.00;100819.41;5054444;28;20225;-73
2022/10/12 01:20:20;;;;;;;0.60;0.60;;;;;;;17.28;100.00;100794.06;5089012;28;20201;-73
2022/10/12 01:23:04;;;;;;;0.65;0.65;;;;;;;16.95;100.00;100731.19;5007992;28;20212;-73
2022/10/12 01:25:47;;;;;;;0.60;0.60;;;;;;;17.41;100.00;100822.91;4990799;28;20217;-73
2022/10/12 01:28:23;;;;;;;0.70;0.70;;;;;;;17.23;100.00;100803.66;4989013;28;20654;-73
2022/10/12 01:30:58;;;;;;;0.90;0.90;;;;;;;17.43;100.00;100822.03;4999075;28;20200;-74
2022/10/12 01:33:32;;;;;;;0.85;0.85;;;;;;;17.37;100.00;100821.16;5005098;28;20213;-73
2022/10/12 01:36:05;;;;;;;0.65;0.65;;;;;;;17.38;100.00;100823.75;4997670;28;20224;-73
2022/10/12 01:38:41;;;;;;;0.70;0.70;;;;;;;17.34;100.00;100828.13;4991836;28;20681;-72
2022/10/12 01:41:13;;;;;;;1.25;1.25;;;;;;;17.23;100.00;100808.91;4992773;28;20316;-72
2022/10/12 01:43:41;;;;;;;0.80;0.80;;;;;;;17.21;100.00;100820.28;4991957;28;20209;-73
2022/10/12 01:46:50;;;;;;;0.70;0.70;;;;;;;17.39;100.00;100824.63;4961061;28;20205;-72
2022/10/12 01:49:24;;;;;;;0.70;0.70;;;;;;;17.44;100.00;100822.91;4914996;29;20200;-72
2022/10/12 01:52:07;;;;;;;1.45;1.45;;;;;;;17.32;100.00;100808.03;4910395;29;20211;-73
2022/10/12 01:54:46;;;;;;;0.60;0.60;;;;;;;17.32;100.00;100823.78;4906089;29;20205;-73
2022/10/12 01:57:21;;;;;;;0.60;0.60;;;;;;;17.44;100.00;100833.38;4910180;29;20204;-72
2022/10/12 01:59:59;;;;;;;1.13;1.13;;;;;;;17.42;100.00;100830.75;4917381;29;20688;-73
2022/10/12 02:02:34;;;;;;;0.70;0.70;;;;;;;17.30;100.00;100836.88;4957849;28;20237;-73
2022/10/12 02:05:10;;;;;;;0.80;0.80;;;;;;;17.29;100.00;100827.28;4980077;28;20197;-73
2022/10/12 02:07:41;;;;;;;1.38;1.27;;;;;;;17.21;100.00;100804.56;4989650;28;20202;-73
2022/10/12 02:10:14;;;;;;;0.70;0.70;;;;;;;17.24;100.00;100821.16;4991733;28;20341;-73
2022/10/12 02:12:45;;;;;;;0.70;0.70;;;;;;;17.24;100.00;100826.38;4991084;28;20213;-73
2022/10/12 02:15:13;;;;;;;0.60;0.60;;;;;;;17.09;100.00;100828.13;4991617;28;20602;-73
2022/10/12 02:17:44;;;;;;;0.70;0.70;;;;;;;17.13;100.00;100822.91;4974948;28;20249;-73
2022/10/12 02:20:16;;;;;;;0.90;0.90;;;;;;;17.20;100.00;100829.88;4972197;28;20225;-73
2022/10/12 02:22:48;;;;;;;0.60;0.60;;;;;;;17.02;100.00;100803.66;4971487;28;20762;-73
2022/10/12 02:25:18;;;;;;;0.70;0.70;;;;;;;17.18;100.00;100831.66;5023719;28;20207;-73
2022/10/12 02:27:59;;;;;;;0.70;0.70;;;;;;;17.22;100.00;100833.41;5093414;28;20202;-73
2022/10/12 02:30:27;;;;;;;0.80;0.80;;;;;;;17.10;100.00;100833.38;5093465;28;20704;-74
2022/10/12 02:32:59;;;;;;;0.77;0.77;;;;;;;16.84;100.00;100775.72;5040748;28;20213;-74
2022/10/12 02:35:32;;;;;;;0.70;0.70;;;;;;;17.07;100.00;100830.75;5092382;28;20245;-73
2022/10/12 02:38:03;;;;;;;1.13;1.13;;;;;;;17.14;100.00;100832.50;5093027;28;20197;-73
2022/10/12 02:40:35;;;;;;;0.98;0.98;;;;;;;17.08;100.00;100829.03;5057396;28;20190;-73
2022/10/12 02:43:08;;;;;;;0.70;0.70;;;;;;;17.17;100.00;100829.88;5092394;28;20367;-73
2022/10/12 02:45:36;;;;;;;0.60;0.60;;;;;;;17.23;100.00;100840.38;5092073;28;20199;-73
2022/10/12 02:48:06;;;;;;;1.00;1.00;;;;;;;17.30;100.00;100828.16;5091823;28;20221;-73
2022/10/12 02:50:34;;;;;;;0.77;0.77;;;;;;;17.20;100.00;100831.63;5056480;28;20594;-73
2022/10/12 02:53:04;;;;;;;0.70;0.70;;;;;;;17.16;100.00;100825.50;5091721;28;20197;-73
2022/10/12 02:55:31;;;;;;;2.10;1.08;;;;;;;17.07;100.00;100822.91;5084952;28;20202;-73
2022/10/12 02:57:58;;;;;;;0.70;0.70;;;;;;;17.08;100.00;100829.91;5092051;28;20194;-73
2022/10/12 03:00:24;;;;;;;0.70;0.70;;;;;;;17.03;100.00;100829.00;5092460;28;20227;-73
2022/10/12 03:02:51;;;;;;;0.75;0.75;;;;;;;16.98;100.00;100833.34;5091818;28;20218;-73
2022/10/12 03:05:18;;;;;;;0.60;0.60;;;;;;;16.79;100.00;100794.94;5077179;28;20207;-73
2022/10/12 03:07:46;;;;;;;0.60;0.60;;;;;;;17.00;100.00;100826.38;5071940;28;20256;-73
2022/10/12 03:10:13;;;;;;;0.60;0.60;;;;;;;16.83;100.00;100834.25;5053373;28;20203;-73
2022/10/12 03:12:39;;;;;;;0.90;0.90;;;;;;;16.90;100.00;100837.75;5071643;28;20276;-73
2022/10/12 03:15:07;;;;;;;1.23;1.23;;;;;;;16.83;100.00;100842.09;5069586;28;20198;-73
2022/10/12 03:17:34;;;;;;;0.60;0.60;;;;;;;16.90;100.00;100840.34;5051091;28;20280;-73
2022/10/12 03:20:00;;;;;;;1.15;1.15;;;;;;;16.63;100.00;100829.81;5091497;28;20202;-74
2022/10/12 03:22:27;;;;;;;0.70;0.70;;;;;;;16.58;100.00;100826.31;5091834;28;20225;-73
2022/10/12 03:24:55;;;;;;;0.70;0.70;;;;;;;16.79;100.00;100834.22;5091687;28;20194;-73
2022/10/12 03:27:23;;;;;;;0.50;0.50;;;;;;;16.56;100.00;100822.81;5092004;28;20201;-74
2022/10/12 03:29:50;;;;;;;0.90;0.90;;;;;;;16.57;100.00;100835.91;5078379;28;20230;-73
2022/10/12 03:32:17;;;;;;;0.88;0.88;;;;;;;16.39;100.00;100820.13;5073341;28;20202;-73
2022/10/12 03:34:44;;;;;;;0.80;0.80;;;;;;;16.10;100.00;100759.84;5076007;28;20198;-73
2022/10/12 03:37:10;;;;;;;0.70;0.70;;;;;;;16.50;100.00;100841.09;5077266;28;20198;-73
2022/10/12 03:39:37;;;;;;;0.82;0.82;;;;;;;16.50;100.00;100843.72;5083884;28;20611;-73
2022/10/12 03:42:05;;;;;;;0.70;0.70;;;;;;;16.52;100.00;100821.00;5075912;28;20751;-72
2022/10/12 03:44:32;;;;;;;0.60;0.60;;;;;;;16.55;100.00;100821.06;5087642;28;20445;-72
2022/10/12 03:46:59;;;;;;;0.63;0.63;;;;;;;16.77;100.00;100844.69;5074960;28;20202;-73
2022/10/12 03:49:26;;;;;;;0.60;0.60;;;;;;;16.69;100.00;100846.44;5090697;28;20202;-72
2022/10/12 03:51:52;;;;;;;0.70;0.70;;;;;;;16.57;100.00;100848.13;5090663;28;20700;-73
2022/10/12 03:54:19;;;;;;;0.60;0.60;;;;;;;16.52;100.00;100845.44;5091555;28;20657;-72
2022/10/12 03:56:46;;;;;;;0.60;0.60;;;;;;;16.63;100.00;100837.66;5090738;28;20459;-72
2022/10/12 03:59:14;;;;;;;0.80;0.80;;;;;;;16.67;100.00;100842.03;5072243;28;20209;-72
2022/10/12 04:01:41;;;;;;;0.90;0.90;;;;;;;16.62;100.00;100844.63;5090293;28;20221;-72
2022/10/12 04:04:09;;;;;;;0.70;0.70;;;;;;;16.47;100.00;100841.97;5086460;28;20199;-72
2022/10/12 04:06:36;;;;;;;0.70;0.70;;;;;;;16.54;100.00;100840.25;5086765;28;20587;-72
2022/10/12 04:09:03;;;;;;;0.65;0.65;;;;;;;16.58;100.00;100837.69;5074798;28;20214;-73
2022/10/12 04:11:30;;;;;;;0.60;0.60;;;;;;;16.48;100.00;100830.59;5071080;28;20203;-74
2022/10/12 04:13:57;;;;;;;0.70;0.70;;;;;;;16.50;100.00;100841.97;5076158;28;20198;-73
2022/10/12 04:16:25;;;;;;;0.70;0.70;;;;;;;16.63;100.00;100850.75;5091110;28;20206;-71
2022/10/12 04:18:52;;;;;;;0.60;0.60;;;;;;;16.55;100.00;100842.84;5071397;28;20240;-72
2022/10/12 04:21:22;;;;;;;0.95;0.95;;;;;;;16.60;100.00;100829.81;5091160;28;20194;-72
2022/10/12 04:23:49;;;;;;;0.70;0.70;;;;;;;16.63;100.00;100850.75;5090675;28;20202;-73
2022/10/12 04:26:16;;;;;;;0.70;0.70;;;;;;;16.63;100.00;100845.53;5090190;28;20198;-73
2022/10/12 04:28:42;;;;;;;0.60;0.60;;;;;;;16.68;100.00;100849.91;5090584;28;20200;-72
2022/10/12 04:31:09;;;;;;;0.60;0.60;;;;;;;16.75;100.00;100861.28;5076845;28;20698;-73
2022/10/12 04:33:37;;;;;;;1.10;1.10;;;;;;;16.72;100.00;100862.16;5083754;28;20261;-73
2022/10/12 04:36:04;;;;;;;0.60;0.60;;;;;;;16.64;100.00;100863.00;5090023;28;20197;-74
2022/10/12 04:38:31;;;;;;;0.60;0.60;;;;;;;16.66;100.00;100866.47;5090547;28;20202;-73
2022/10/12 04:40:58;;;;;;;0.60;0.60;;;;;;;16.77;100.00;100870.00;5083467;28;20623;-73
2022/10/12 04:43:25;;;;;;;0.60;0.60;;;;;;;16.82;100.00;100869.16;5086746;28;20222;-73
2022/10/12 04:45:55;;;;;;;0.60;0.60;;;;;;;16.78;100.00;100867.41;5084016;28;20206;-73
2022/10/12 04:48:22;;;;;;;0.70;0.70;;;;;;;16.73;100.00;100863.03;5090529;28;20210;-72
2022/10/12 04:50:51;;;;;;;0.60;0.60;;;;;;;16.90;100.00;100871.78;5088547;28;20203;-72
2022/10/12 04:53:18;;;;;;;0.60;0.60;;;;;;;16.70;100.00;100876.09;5090837;28;20202;-72
2022/10/12 04:55:45;;;;;;;0.75;0.75;;;;;;;16.66;100.00;100887.41;5090707;28;20209;-73
2022/10/12 04:58:12;;;;;;;0.70;0.70;;;;;;;16.77;100.00;100872.63;5090600;28;20194;-73
2022/10/12 05:00:39;;;;;;;0.70;0.70;;;;;;;16.75;100.00;100882.22;5090587;28;20591;-73
2022/10/12 05:03:06;;;;;;;0.70;0.70;;;;;;;16.81;100.00;100887.47;5089664;28;20634;-73
2022/10/12 05:05:34;;;;;;;0.70;0.70;;;;;;;16.83;100.00;100878.78;5090065;28;20221;-73
2022/10/12 05:08:03;;;;;;;0.60;0.60;;;;;;;16.87;100.00;100895.38;5090407;28;20245;-73
2022/10/12 05:10:30;;;;;;;0.60;0.60;;;;;;;16.60;100.00;100858.59;5090182;28;20205;-73
2022/10/12 05:12:57;;;;;;;0.70;0.70;;;;;;;16.78;100.00;100893.59;5093968;28;20198;-72
2022/10/12 05:15:23;;;;;;;0.70;0.70;;;;;;;16.93;100.00;100889.25;5094533;28;20255;-72
2022/10/12 05:17:50;;;;;;;1.00;1.00;;;;;;;17.09;100.00;100884.03;5094460;28;20236;-73
2022/10/12 05:20:17;;;;;;;0.60;0.60;;;;;;;17.20;100.00;100899.78;5094173;28;20193;-73
2022/10/12 05:22:44;;;;;;;0.75;0.75;;;;;;;17.09;100.00;100904.13;5093583;28;20222;-73
2022/10/12 05:25:12;;;;;;;0.70;0.70;;;;;;;17.37;100.00;100900.69;5093411;28;20194;-74
2022/10/12 05:27:39;;;;;;;0.60;0.60;;;;;;;17.47;100.00;100909.41;5093603;28;20194;-73
2022/10/12 05:30:07;;;;;;;0.60;0.60;;;;;;;17.51;100.00;100913.78;5093928;28;20194;-73
2022/10/12 05:32:34;;;;;;;0.60;0.60;;;;;;;17.12;100.00;100915.47;5094339;28;20198;-74
2022/10/12 05:35:01;;;;;;;0.60;0.60;;;;;;;17.29;100.00;100915.53;5093647;28;20221;-74
2022/10/12 05:37:28;;;;;;;0.70;0.70;;;;;;;17.22;100.00;100905.91;5052025;28;20206;-73
2022/10/12 05:39:55;;;;;;;1.33;1.17;;;;;;;17.34;100.00;100917.25;5092808;28;20198;-73
2022/10/12 05:42:23;;;;;;;0.70;0.70;;;;;;;17.49;100.00;100920.75;5076469;28;20721;-73
2022/10/12 05:44:50;;;;;;;0.70;0.70;;;;;;;17.34;100.00;100927.75;5084201;28;20682;-74
2022/10/12 05:47:17;;;;;;;0.70;0.70;;;;;;;17.57;100.00;100934.78;5061158;28;20220;-74
2022/10/12 05:49:43;;;;;;;0.60;0.60;;;;;;;17.73;100.00;100926.03;5024728;28;20684;-74
2022/10/12 05:52:10;;;;;;;0.70;0.70;;;;;;;17.72;100.00;100924.31;5037234;28;20207;-73
2022/10/12 05:54:37;;;;;;;0.75;0.75;;;;;;;18.33;100.00;100935.59;5068727;28;20228;-77
2022/10/12 05:57:04;;;;;;;0.70;0.70;;;;;;;18.71;100.00;100938.97;5073955;28;20692;-77
2022/10/12 05:59:32;;;;;;;2.28;1.75;;;;;;;18.65;100.00;100938.13;5085573;28;20227;-74
2022/10/12 06:01:59;;;;;;;1.58;1.55;;;;;;;18.88;100.00;100945.88;5090061;28;20202;-73
2022/10/12 06:04:26;;;;;;;0.82;0.82;;;;;;;18.77;100.00;100964.31;5060052;28;20203;-72
2022/10/12 06:06:53;;;;;;;0.60;0.60;;;;;;;18.77;100.00;100966.94;5073237;28;20214;-72
2022/10/12 06:09:19;;;;;;;0.60;0.60;;;;;;;18.55;100.00;100979.28;5073118;28;20218;-72
2022/10/12 06:11:46;;;;;;;0.75;0.75;;;;;;;18.74;100.00;100969.59;5057193;28;20206;-72
2022/10/12 06:14:13;;;;;;;0.88;0.88;;;;;;;18.94;100.00;100980.03;5072686;28;20214;-72
2022/10/12 06:16:41;;;;;;;0.65;0.65;;;;;;;18.97;100.00;100983.53;5072695;28;20203;-74
2022/10/12 06:19:10;;;;;;;0.95;0.95;;;;;;;18.98;100.00;100937.94;5066594;28;20222;-73
2022/10/12 06:21:37;;;;;;;1.20;1.20;;;;;;;19.49;100.00;100976.22;5087450;28;20666;-70
2022/10/12 06:24:04;;;;;;;0.63;0.63;;;;;;;19.76;100.00;100976.00;5074136;28;20225;-71
2022/10/12 06:26:31;;;;;;;0.70;0.70;;;;;;;19.77;100.00;100968.97;5084451;28;20203;-71
2022/10/12 06:28:59;;;;;;;0.80;0.80;;;;;;;20.07;97.36;100989.78;5083261;28;20211;-71
2022/10/12 06:31:26;;;;;;;0.60;0.60;;;;;;;19.83;93.49;100995.28;5073447;28;20618;-72
2022/10/12 06:33:54;;;;;;;0.60;0.60;;;;;;;19.88;96.12;100969.75;5084916;28;20211;-71
2022/10/12 06:36:22;;;;;;;0.60;0.60;;;;;;;20.13;97.60;100992.34;5088459;28;20592;-71
2022/10/12 06:38:49;;;;;;;0.80;0.80;;;;;;;20.15;96.50;100966.91;5057988;28;20207;-71
2022/10/12 06:41:15;;;;;;;0.60;0.60;;;;;;;20.50;93.55;100997.28;5072889;28;20209;-71
2022/10/12 06:43:42;;;;;;;0.60;0.60;;;;;;;20.44;91.07;101000.00;5079821;28;20217;-72
2022/10/12 06:46:09;;;;;;;0.70;0.70;;;;;;;20.18;94.24;100998.47;5060560;28;20677;-71
2022/10/12 06:48:36;;;;;;;0.77;0.77;;;;;;;20.19;90.22;100999.34;5086140;28;20195;-72
2022/10/12 06:51:04;;;;;;;1.02;1.02;;;;;;;20.42;89.07;101000.00;5074885;28;20203;-71
2022/10/12 06:53:33;;;;;;;0.93;0.93;;;;;;;20.28;88.16;101000.16;5080701;28;20225;-73
2022/10/12 06:56:05;;;;;;;0.60;0.60;;;;;;;20.00;90.23;100992.50;5067199;28;20222;-73
2022/10/12 06:58:31;;;;;;;0.60;0.60;;;;;;;19.77;91.58;100993.53;5077778;28;20210;-73
2022/10/12 07:00:58;;;;;;;0.60;0.60;;;;;;;19.59;92.48;100975.25;5073341;28;20201;-73
2022/10/12 07:03:25;;;;;;;1.77;1.73;;;;;;;19.84;91.53;100997.00;5079231;28;20239;-73
2022/10/12 07:05:52;;;;;;;0.80;0.80;;;;;;;19.88;91.10;100990.81;5071865;28;20215;-73
2022/10/12 07:08:20;;;;;;;0.60;0.60;;;;;;;19.91;92.12;100993.44;5071763;28;20647;-73
2022/10/12 07:10:46;;;;;;;0.70;0.70;;;;;;;19.97;91.84;100998.66;5068957;28;20269;-74
2022/10/12 07:13:13;;;;;;;0.80;0.80;;;;;;;19.94;91.28;100998.66;5042231;28;20248;-72
2022/10/12 07:15:40;;;;;;;0.70;0.70;;;;;;;19.70;93.98;100994.47;5071584;28;20203;-73
2022/10/12 07:18:07;;;;;;;0.98;0.98;;;;;;;19.55;94.44;101004.25;5088193;28;20222;-73
2022/10/12 07:20:33;;;;;;;0.85;0.85;;;;;;;19.09;96.23;100914.22;5054616;28;20205;-77
2022/10/12 07:23:00;;;;;;;0.73;0.73;;;;;;;19.75;94.20;101007.63;5031570;28;20234;-73
2022/10/12 07:25:29;;;;;;;0.70;0.70;;;;;;;19.88;92.07;100997.84;5079331;28;20194;-73
2022/10/12 07:27:56;;;;;;;0.60;0.60;;;;;;;19.66;92.09;101002.41;5039561;28;20203;-73
2022/10/12 07:30:23;;;;;;;0.98;0.98;;;;;;;19.49;92.81;101001.66;5086245;28;20213;-73
2022/10/12 07:32:49;;;;;;;0.63;0.63;;;;;;;18.94;93.37;100909.06;5075058;28;20682;-73
2022/10/12 07:35:16;;;;;;;1.15;1.15;;;;;;;19.53;93.56;101001.63;5070041;28;20252;-73
2022/10/12 07:37:43;;;;;;;2.10;1.77;;;;;;;19.91;90.97;101017.13;5072721;28;20207;-72
2022/10/12 07:40:10;;;;;;;0.60;0.60;;;;;;;19.91;89.60;100972.38;5065167;28;20211;-72
2022/10/12 07:42:38;;;;;;;0.65;0.65;;;;;;;20.36;87.40;100992.19;5069896;28;20223;-70
2022/10/12 07:45:06;;;;;;;0.60;0.60;;;;;;;20.46;88.21;101007.00;5070811;28;20674;-70
2022/10/12 07:47:33;;;;;;;0.73;0.73;;;;;;;20.72;84.98;101014.63;5070886;28;20202;-70
2022/10/12 07:49:59;;;;;;;0.70;0.70;;;;;;;21.12;84.23;101015.88;5070892;28;20302;-71
2022/10/12 07:52:27;;;;;;;0.75;0.75;;;;;;;21.15;80.66;101013.19;5088472;28;20274;-73
2022/10/12 07:54:54;;;;;;;0.60;0.60;;;;;;;20.97;80.96;101013.44;5071989;28;20206;-71
2022/10/12 07:57:20;;;;;;;0.60;0.60;;;;;;;21.24;80.71;101013.09;5070462;28;20198;-72
2022/10/12 07:59:48;;;;;;;1.33;1.33;;;;;;;21.22;78.65;101012.22;5070501;28;20211;-71
2022/10/12 08:02:15;;;;;;;0.70;0.70;;;;;;;21.06;79.54;101012.41;5071247;28;20651;-72
2022/10/12 08:04:42;;;;;;;0.65;0.65;;;;;;;21.12;78.32;101000.06;5072703;28;20222;-71
2022/10/12 08:07:09;;;;;;;0.70;0.70;;;;;;;21.32;76.07;100994.53;5073629;28;20191;-70
2022/10/12 08:09:36;;;;;;;0.60;0.60;;;;;;;21.85;74.16;101009.53;5052101;28;20221;-71
2022/10/12 08:12:03;;;;;;;0.60;0.60;;;;;;;21.74;74.78;101020.28;5073742;28;20207;-72
2022/10/12 08:14:29;;;;;;;0.60;0.60;;;;;;;22.02;73.90;101015.44;5070274;28;20207;-72
2022/10/12 08:16:58;;;;;;;0.90;0.90;;;;;;;22.09;72.89;101006.50;5048042;28;20227;-72
2022/10/12 08:19:24;;;;;;;0.70;0.70;;;;;;;22.02;73.74;101010.16;5085172;28;20203;-72
2022/10/12 08:21:51;;;;;;;1.55;1.00;;;;;;;21.80;75.14;101019.28;5086562;28;20259;-73
2022/10/12 08:24:18;;;;;;;0.70;0.70;;;;;;;21.77;76.90;101014.06;5090537;28;20721;-72
2022/10/12 08:26:45;;;;;;;0.60;0.60;;;;;;;21.84;75.94;101005.16;5078492;28;20259;-71
2022/10/12 08:29:12;;;;;;;0.68;0.68;;;;;;;21.93;75.55;101020.88;5083977;28;20658;-71
2022/10/12 08:31:39;;;;;;;0.77;0.77;;;;;;;21.72;76.74;100981.59;5079686;28;20678;-70
2022/10/12 08:34:08;;;;;;;1.17;1.08;;;;;;;21.98;76.92;101016.38;5070524;28;20198;-70
2022/10/12 08:36:35;;;;;;;0.60;0.60;;;;;;;21.89;77.22;101013.00;5064621;28;20226;-70
2022/10/12 08:39:05;;;;;;;1.55;0.95;;;;;;;21.89;74.63;101013.00;5070648;28;20198;-70
2022/10/12 08:41:42;;;;;;;0.75;0.75;;;;;;;21.85;73.03;101014.81;5051738;28;20237;-70
2022/10/12 08:44:34;;;;;;;0.60;0.60;;;;;;;21.77;72.91;101014.06;5070283;28;20619;-70
2022/10/12 08:47:07;;;;;;;0.70;0.70;;;;;;;21.59;74.81;100982.66;5010196;28;20220;-70
2022/10/12 08:49:38;;;;;;;1.60;0.88;;;;;;;21.50;75.32;100980.19;4996891;28;20199;-70
2022/10/12 08:52:13;;;;;;;1.05;1.05;;;;;;;21.42;76.41;100979.41;5032184;28;20290;-70
2022/10/12 08:54:43;;;;;;;0.70;0.70;;;;;;;21.80;75.35;100998.16;5032050;28;20206;-70
2022/10/12 08:57:16;;;;;;;1.02;1.02;;;;;;;21.70;81.76;101008.00;5032543;28;20204;-74
2022/10/12 08:59:44;;;;;;;0.60;0.60;;;;;;;21.53;79.16;100974.84;5032503;28;20192;-71
2022/10/12 09:02:25;;;;;;;0.70;0.70;;;;;;;21.71;76.94;101008.88;5032304;28;20223;-71
2022/10/12 09:04:59;;;;;;;0.70;0.70;;;;;;;21.79;78.13;101007.00;5031802;28;20329;-70
2022/10/12 09:07:29;;;;;;;0.70;0.70;;;;;;;21.94;78.19;101006.75;5032362;28;20203;-71
2022/10/12 09:10:10;;;;;;;0.90;0.90;;;;;;;21.70;78.81;101001.84;5032375;28;20200;-70
2022/10/12 09:12:50;;;;;;;0.75;0.75;;;;;;;21.48;92.41;101003.06;5032185;28;20223;-74
2022/10/12 09:15:21;;;;;;;3.20;1.05;;;;;;;21.84;95.54;100993.69;5017960;28;20200;-74
2022/10/12 09:17:52;;;;;;;1.02;1.02;;;;;;;21.89;86.98;100998.03;5015759;28;20285;-71
2022/10/12 09:20:22;;;;;;;0.82;0.82;;;;;;;22.00;81.32;100996.13;5019698;28;20200;-71
2022/10/12 09:22:51;;;;;;;0.70;0.70;;;;;;;22.03;80.73;100996.06;5024807;28;20201;-70
2022/10/12 09:25:19;;;;;;;0.90;0.90;;;;;;;21.82;81.04;100991.09;5066917;28;20670;-71
2022/10/12 09:27:47;;;;;;;0.93;0.93;;;;;;;21.25;87.99;100988.47;5074128;28;20217;-71
2022/10/12 09:30:15;;;;;;;0.70;0.70;;;;;;;21.68;84.60;101003.66;5074047;28;20239;-71
2022/10/12 09:33:12;;;;;;;0.60;0.60;;;;;;;21.51;84.67;101001.25;5060027;28;20203;-71
2022/10/12 09:35:41;;;;;;;1.13;1.13;;;;;;;21.26;83.28;100977.00;5051196;28;20218;-71
2022/10/12 09:38:10;;;;;;;0.80;0.80;;;;;;;21.41;85.22;100985.59;5055117;28;20219;-72
2022/10/12 09:40:38;;;;;;;0.65;0.65;;;;;;;21.46;84.15;100983.75;5041940;28;20204;-73
2022/10/12 09:43:07;;;;;;;0.80;0.80;;;;;;;21.60;82.45;101001.13;5052118;28;20204;-74
2022/10/12 09:45:35;;;;;;;0.60;0.60;;;;;;;21.80;84.69;100998.16;5052559;28;20199;-74
2022/10/12 09:48:17;;;;;;;1.38;1.27;;;;;;;22.04;84.19;101002.22;5045750;28;20680;-71
2022/10/12 09:50:50;;;;;;;0.60;0.60;;;;;;;21.66;79.59;100985.19;5044852;28;20210;-72
2022/10/12 09:53:24;;;;;;;0.60;0.60;;;;;;;21.76;79.89;101002.63;5051508;28;20199;-72
2022/10/12 09:55:57;;;;;;;0.70;0.70;;;;;;;21.89;80.00;100991.88;5054949;28;20194;-73
2022/10/12 09:58:25;;;;;;;1.48;1.00;;;;;;;22.01;79.14;100997.84;5049724;28;20204;-71
2022/10/12 10:01:27;;;;;;;1.08;1.08;;;;;;;22.10;77.11;100995.06;5035837;28;20261;-71
2022/10/12 10:04:10;;;;;;;0.88;0.88;;;;;;;21.93;77.71;100977.75;5051090;28;20238;-71
2022/10/12 10:06:41;;;;;;;0.60;0.60;;;;;;;22.17;77.68;100996.69;5050537;28;20210;-70
2022/10/12 10:09:27;;;;;;;0.60;0.60;;;;;;;22.53;74.78;100987.19;5050305;28;20664;-71
2022/10/12 10:11:54;;;;;;;1.35;1.35;;;;;;;22.24;75.16;100994.81;5055384;28;20640;-71
2022/10/12 10:14:21;;;;;;;0.70;0.70;;;;;;;22.23;74.03;100972.78;5086419;28;20207;-70
2022/10/12 10:16:50;;;;;;;0.85;0.85;;;;;;;22.51;72.29;100967.00;5065040;28;20221;-81
2022/10/12 10:19:18;;;;;;;0.60;0.60;;;;;;;22.44;70.85;100989.16;5066010;28;20213;-73
2022/10/12 10:21:47;;;;;;;0.70;0.70;;;;;;;22.64;70.79;100982.56;5092915;28;20194;-72
2022/10/12 10:24:27;;;;;;;0.60;0.60;;;;;;;22.59;70.99;100986.19;5084901;28;20622;-70
2022/10/12 10:26:56;;;;;;;0.70;0.70;;;;;;;22.71;69.94;100988.63;5056320;28;20654;-72
2022/10/12 10:29:34;;;;;;;0.63;0.63;;;;;;;22.83;67.95;100983.09;5069985;28;20611;-72
2022/10/12 10:32:12;;;;;;;0.60;0.60;;;;;;;22.47;69.11;100978.53;5091545;28;20284;-72
2022/10/12 10:34:40;;;;;;;0.70;0.70;;;;;;;22.46;69.69;100980.28;5073160;28;20206;-72
2022/10/12 10:37:16;;;;;;;0.52;0.52;;;;;;;22.55;68.85;100973.94;5088816;28;20191;-72
2022/10/12 10:39:47;;;;;;;0.60;0.60;;;;;;;22.59;68.42;100959.75;5089206;28;20209;-73
2022/10/12 10:42:19;;;;;;;0.70;0.70;;;;;;;21.98;70.76;100960.91;5085356;28;20194;-72
2022/10/12 10:44:49;;;;;;;2.08;1.70;;;;;;;22.20;71.22;100959.63;5072440;28;20230;-75
2022/10/12 10:47:16;;;;;;;0.90;0.90;;;;;;;22.20;70.03;100954.34;5072041;28;20542;-72
2022/10/12 10:49:48;;;;;;;0.63;0.63;;;;;;;22.34;74.07;100940.00;5072690;28;20195;-76
2022/10/12 10:52:25;;;;;;;0.60;0.60;;;;;;;22.46;70.92;100939.78;5072112;28;20206;-73
2022/10/12 10:55:15;;;;;;;0.60;0.60;;;;;;;22.34;69.98;100938.22;5072017;28;20213;-73
2022/10/12 10:57:46;;;;;;;0.65;0.65;;;;;;;22.27;71.75;100935.72;5072155;28;20199;-74
2022/10/12 11:00:16;;;;;;;0.70;0.70;;;;;;;22.25;71.53;100909.34;5053310;28;20203;-73
2022/10/12 11:02:48;;;;;;;0.85;0.85;;;;;;;22.45;71.10;100936.25;5071516;28;20187;-73
2022/10/12 11:05:20;;;;;;;1.05;1.05;;;;;;;22.02;72.27;100923.00;5071875;28;20226;-73
2022/10/12 11:07:51;;;;;;;0.60;0.60;;;;;;;22.18;71.09;100935.03;5071491;28;20206;-73
2022/10/12 11:10:24;;;;;;;0.95;0.95;;;;;;;22.04;71.24;100920.34;5071574;28;20211;-73
2022/10/12 11:12:59;;;;;;;0.70;0.70;;;;;;;22.23;70.66;100925.22;5071263;28;20199;-74
2022/10/12 11:15:33;;;;;;;0.90;0.90;;;;;;;22.32;71.65;100933.88;5071581;28;20205;-72
2022/10/12 11:18:08;;;;;;;0.70;0.70;;;;;;;22.60;69.83;100929.78;5071346;28;20729;-73
2022/10/12 11:20:43;;;;;;;1.13;1.13;;;;;;;22.66;68.92;100924.38;5085734;28;20213;-73
2022/10/12 11:23:22;;;;;;;0.70;0.70;;;;;;;22.11;69.62;100920.19;5081143;28;20199;-73
2022/10/12 11:26:00;;;;;;;0.70;0.70;;;;;;;22.60;69.04;100906.00;5084783;28;20225;-72
2022/10/12 11:28:31;;;;;;;0.70;0.70;;;;;;;22.84;68.61;100918.72;5081904;28;20226;-73
2022/10/12 11:30:57;;;;;;;0.60;0.60;;;;;;;22.73;67.18;100920.72;5063105;28;20625;-73
2022/10/12 11:33:29;;;;;;;0.70;0.70;;;;;;;22.68;67.64;100914.69;5082558;28;20206;-72
2022/10/12 11:35:58;;;;;;;0.70;0.70;;;;;;;22.68;67.88;100906.75;5071690;28;20202;-73